Time;durP1;ratioP1;P1;durP2;ratioP2;P2;SDS_P1;SDS_P2;PMS_P1;PMS_P2;Temp;Humidity;BMP_temperature;BMP_pressure;BME280_temperature;BME280_humidity;BME280_pressure;Samples;Min_cycle;Max_cycle;Signal;HPM_P1;HPM_P2
2023/12/08 00:01:16;;;;;;;11.55;7.70;;;;;;;;;;5036511;28;20069;-63
2023/12/08 00:03:41;;;;;;;12.07;7.20;;;;;;;;;;5043832;28;20017;-63
2023/12/08 00:06:07;;;;;;;12.43;7.47;;;;;;;;;;5035228;28;20025;-63
2023/12/08 00:08:32;;;;;;;11.25;7.18;;;;;;;;;;5023571;28;20875;-63
2023/12/08 00:10:57;;;;;;;13.48;7.88;;;;;;;;;;5033683;28;20467;-63
2023/12/08 00:13:23;;;;;;;14.23;8.17;;;;;;;;;;5034931;28;20457;-63
2023/12/08 00:15:48;;;;;;;13.52;7.88;;;;;;;;;;5034372;28;20705;-63
2023/12/08 00:18:13;;;;;;;13.67;7.50;;;;;;;;;;5039531;28;20137;-63
2023/12/08 00:20:38;;;;;;;16.20;7.70;;;;;;;;;;5033167;28;20612;-64
2023/12/08 00:23:04;;;;;;;13.60;8.13;;;;;;;;;;5037762;28;20021;-63
2023/12/08 00:25:29;;;;;;;14.43;8.32;;;;;;;;;;5044134;28;20305;-63
2023/12/08 00:27:55;;;;;;;17.30;8.02;;;;;;;;;;5037590;28;20016;-64
2023/12/08 00:30:20;;;;;;;13.13;7.03;;;;;;;;;;5038577;28;20033;-64
2023/12/08 00:32:46;;;;;;;14.07;8.07;;;;;;;;;;5038261;28;20402;-64
2023/12/08 00:35:11;;;;;;;13.20;7.95;;;;;;;;;;5048708;28;20024;-64
2023/12/08 00:37:36;;;;;;;12.93;7.90;;;;;;;;;;5045064;28;20064;-64
2023/12/08 00:40:03;;;;;;;15.77;8.70;;;;;;;;;;5033831;28;20071;-64
2023/12/08 00:42:28;;;;;;;12.70;7.43;;;;;;;;;;5032951;28;20029;-64
2023/12/08 00:44:53;;;;;;;12.80;7.53;;;;;;;;;;5046374;28;20044;-64
2023/12/08 00:47:18;;;;;;;14.43;9.05;;;;;;;;;;5035094;28;20039;-64
2023/12/08 00:49:44;;;;;;;14.40;8.23;;;;;;;;;;5038554;28;20035;-64
2023/12/08 00:52:09;;;;;;;14.23;8.40;;;;;;;;;;5035394;28;20285;-63
2023/12/08 00:54:34;;;;;;;14.02;8.18;;;;;;;;;;5037943;28;20056;-64
2023/12/08 00:56:59;;;;;;;14.25;7.95;;;;;;;;;;5049959;28;20075;-63
2023/12/08 00:59:24;;;;;;;13.15;9.25;;;;;;;;;;5039565;28;20029;-63
2023/12/08 01:01:50;;;;;;;12.73;8.02;;;;;;;;;;5051422;28;20039;-63
2023/12/08 01:04:15;;;;;;;14.93;9.60;;;;;;;;;;5044607;28;20037;-63
2023/12/08 01:06:40;;;;;;;14.27;8.90;;;;;;;;;;5042156;28;20761;-63
2023/12/08 01:09:05;;;;;;;17.60;8.73;;;;;;;;;;5041448;28;20765;-63
2023/12/08 01:11:30;;;;;;;16.67;8.73;;;;;;;;;;5043636;28;20859;-63
2023/12/08 01:13:56;;;;;;;12.85;7.90;;;;;;;;;;5042372;28;20758;-64
2023/12/08 01:16:21;;;;;;;12.77;8.55;;;;;;;;;;5056126;28;20337;-64
2023/12/08 01:18:46;;;;;;;14.55;8.48;;;;;;;;;;5041587;28;20029;-64
2023/12/08 01:21:12;;;;;;;13.40;8.70;;;;;;;;;;5041674;28;20025;-64
2023/12/08 01:23:37;;;;;;;13.48;7.75;;;;;;;;;;5041549;28;20025;-64
2023/12/08 01:26:05;;;;;;;14.10;8.07;;;;;;;;;;5040752;28;20554;-64
2023/12/08 01:28:30;;;;;;;12.23;7.53;;;;;;;;;;5048305;28;20044;-64
2023/12/08 01:30:56;;;;;;;15.25;8.50;;;;;;;;;;5044111;28;20439;-64
2023/12/08 01:33:21;;;;;;;14.05;8.38;;;;;;;;;;5041905;28;20043;-64
2023/12/08 01:35:46;;;;;;;17.33;8.77;;;;;;;;;;5025231;28;20120;-63
2023/12/08 01:38:11;;;;;;;15.30;8.60;;;;;;;;;;5044685;28;20052;-63
2023/12/08 01:40:40;;;;;;;15.70;8.63;;;;;;;;;;5041517;28;20371;-64
2023/12/08 01:43:09;;;;;;;15.75;8.65;;;;;;;;;;5045635;28;20256;-63
2023/12/08 01:45:34;;;;;;;12.95;7.70;;;;;;;;;;5049709;28;20083;-63
2023/12/08 01:47:59;;;;;;;17.83;7.97;;;;;;;;;;5038432;28;20028;-63
2023/12/08 01:50:25;;;;;;;12.98;8.05;;;;;;;;;;5036582;28;20041;-64
2023/12/08 01:52:50;;;;;;;16.45;7.95;;;;;;;;;;5037476;28;20033;-63
2023/12/08 01:55:16;;;;;;;13.10;7.90;;;;;;;;;;5023475;28;20036;-63
2023/12/08 01:57:41;;;;;;;15.02;7.22;;;;;;;;;;5040046;28;20040;-63
2023/12/08 02:00:07;;;;;;;13.88;7.00;;;;;;;;;;5040847;28;20029;-63
2023/12/08 02:02:33;;;;;;;13.57;7.30;;;;;;;;;;5043953;28;20049;-63
2023/12/08 02:05:00;;;;;;;12.90;6.60;;;;;;;;;;5045536;28;20078;-63
2023/12/08 02:07:26;;;;;;;12.00;7.10;;;;;;;;;;5040666;28;20025;-63
2023/12/08 02:09:51;;;;;;;12.57;7.30;;;;;;;;;;5039703;28;20536;-63
2023/12/08 02:12:16;;;;;;;14.68;7.85;;;;;;;;;;5040730;28;20021;-63
2023/12/08 02:14:41;;;;;;;12.80;7.43;;;;;;;;;;5043205;28;20017;-63
2023/12/08 02:17:13;;;;;;;10.45;7.07;;;;;;;;;;5036548;28;20037;-63
2023/12/08 02:19:38;;;;;;;11.10;6.88;;;;;;;;;;5041198;28;20024;-63
2023/12/08 02:22:04;;;;;;;11.75;6.63;;;;;;;;;;5048325;28;20495;-63
2023/12/08 02:24:29;;;;;;;11.85;7.10;;;;;;;;;;5038478;28;20029;-63
2023/12/08 02:26:54;;;;;;;12.88;6.82;;;;;;;;;;5040833;28;20036;-63
2023/12/08 02:29:20;;;;;;;12.48;7.00;;;;;;;;;;5051080;28;20036;-63
2023/12/08 02:31:51;;;;;;;10.88;7.00;;;;;;;;;;5053217;28;20029;-63
2023/12/08 02:34:17;;;;;;;11.68;6.15;;;;;;;;;;5043599;28;20139;-63
2023/12/08 02:36:44;;;;;;;11.48;7.03;;;;;;;;;;5042118;28;20476;-63
2023/12/08 02:39:10;;;;;;;14.50;7.22;;;;;;;;;;5043147;28;20599;-64
2023/12/08 02:41:36;;;;;;;12.18;7.40;;;;;;;;;;5039135;28;20039;-64
2023/12/08 02:44:01;;;;;;;14.38;7.90;;;;;;;;;;5040958;28;20028;-63
2023/12/08 02:46:26;;;;;;;11.55;6.85;;;;;;;;;;5042990;28;20039;-64
2023/12/08 02:48:51;;;;;;;14.03;8.00;;;;;;;;;;5044253;28;20037;-63
2023/12/08 02:51:16;;;;;;;12.67;7.20;;;;;;;;;;5040718;28;20337;-63
2023/12/08 02:53:42;;;;;;;13.00;7.27;;;;;;;;;;5039312;28;20396;-63
2023/12/08 02:56:07;;;;;;;11.87;6.57;;;;;;;;;;5045971;28;20271;-63
2023/12/08 02:58:33;;;;;;;13.35;7.95;;;;;;;;;;5037499;28;20280;-63
2023/12/08 03:00:58;;;;;;;12.05;7.97;;;;;;;;;;5039541;28;20516;-64
2023/12/08 03:03:24;;;;;;;13.68;7.80;;;;;;;;;;5039533;28;20036;-64
2023/12/08 03:05:50;;;;;;;12.00;7.85;;;;;;;;;;5034460;28;20075;-65
2023/12/08 03:08:16;;;;;;;13.18;8.48;;;;;;;;;;5048487;28;20102;-63
2023/12/08 03:10:41;;;;;;;15.55;8.10;;;;;;;;;;5037015;28;20028;-65
2023/12/08 03:13:06;;;;;;;12.13;7.32;;;;;;;;;;5035258;28;20359;-63
2023/12/08 03:15:31;;;;;;;14.75;7.90;;;;;;;;;;5031102;28;20041;-63
2023/12/08 03:17:56;;;;;;;17.98;8.10;;;;;;;;;;5040068;28;20508;-64
2023/12/08 03:20:22;;;;;;;11.55;7.63;;;;;;;;;;5032462;28;20075;-63
2023/12/08 03:22:47;;;;;;;15.63;7.93;;;;;;;;;;5041039;28;20052;-63
2023/12/08 03:25:12;;;;;;;11.90;7.15;;;;;;;;;;5036797;28;20025;-62
2023/12/08 03:27:37;;;;;;;12.60;6.88;;;;;;;;;;5037232;28;20013;-63
2023/12/08 03:30:03;;;;;;;11.00;6.80;;;;;;;;;;5037187;28;20108;-63
2023/12/08 03:32:29;;;;;;;12.73;7.65;;;;;;;;;;5042690;28;20063;-63
2023/12/08 03:34:54;;;;;;;14.02;7.05;;;;;;;;;;5038711;28;20044;-62
2023/12/08 03:37:19;;;;;;;12.88;7.85;;;;;;;;;;5041598;28;20024;-62
2023/12/08 03:39:46;;;;;;;17.23;7.28;;;;;;;;;;5048675;28;20024;-62
2023/12/08 03:42:11;;;;;;;13.27;6.85;;;;;;;;;;5037388;28;20890;-62
2023/12/08 03:44:37;;;;;;;16.27;7.70;;;;;;;;;;5041034;28;20124;-62
2023/12/08 03:47:02;;;;;;;13.45;7.38;;;;;;;;;;5038944;28;20037;-62
2023/12/08 03:49:27;;;;;;;14.35;7.32;;;;;;;;;;5039404;28;20553;-63
2023/12/08 03:51:53;;;;;;;17.47;6.43;;;;;;;;;;5035430;28;20801;-63
2023/12/08 03:54:18;;;;;;;11.77;6.88;;;;;;;;;;5042642;28;20282;-63
2023/12/08 03:56:43;;;;;;;11.60;6.10;;;;;;;;;;5035827;28;20032;-63
2023/12/08 03:59:09;;;;;;;11.80;6.68;;;;;;;;;;5037830;28;20128;-63
2023/12/08 04:01:34;;;;;;;12.18;6.78;;;;;;;;;;5040943;28;20132;-64
2023/12/08 04:03:59;;;;;;;13.00;7.40;;;;;;;;;;5044841;28;20851;-63
2023/12/08 04:06:24;;;;;;;11.47;6.67;;;;;;;;;;5044890;28;20847;-64
2023/12/08 04:08:50;;;;;;;11.93;7.00;;;;;;;;;;5054316;28;20310;-64
2023/12/08 04:11:15;;;;;;;13.65;7.20;;;;;;;;;;5039772;28;20483;-63
2023/12/08 04:13:40;;;;;;;12.85;7.40;;;;;;;;;;5035955;28;20091;-65
2023/12/08 04:16:06;;;;;;;15.52;8.05;;;;;;;;;;5040930;28;20027;-63
2023/12/08 04:18:31;;;;;;;13.88;8.10;;;;;;;;;;5044336;28;20583;-63
2023/12/08 04:20:56;;;;;;;15.43;7.60;;;;;;;;;;5049185;28;20114;-64
2023/12/08 04:23:21;;;;;;;13.18;7.68;;;;;;;;;;5043112;28;20370;-63
2023/12/08 04:25:46;;;;;;;19.98;8.95;;;;;;;;;;5043313;28;20903;-63
2023/12/08 04:28:12;;;;;;;15.43;8.20;;;;;;;;;;5045939;28;20812;-64
2023/12/08 04:30:37;;;;;;;14.98;8.30;;;;;;;;;;5051607;28;20855;-64
2023/12/08 04:33:02;;;;;;;14.93;7.87;;;;;;;;;;5048176;28;20462;-64
2023/12/08 04:35:27;;;;;;;15.30;7.95;;;;;;;;;;5040322;28;21171;-64
2023/12/08 04:37:53;;;;;;;16.48;7.68;;;;;;;;;;5045584;28;20040;-64
2023/12/08 04:40:18;;;;;;;15.38;8.15;;;;;;;;;;5038279;28;20029;-64
2023/12/08 04:42:44;;;;;;;12.77;7.35;;;;;;;;;;5040739;28;20074;-64
2023/12/08 04:45:09;;;;;;;14.77;7.95;;;;;;;;;;5040773;28;20048;-64
2023/12/08 04:47:35;;;;;;;15.90;8.35;;;;;;;;;;5039760;28;20554;-64
2023/12/08 04:50:00;;;;;;;18.08;8.23;;;;;;;;;;5050139;28;20273;-64
2023/12/08 04:52:25;;;;;;;14.32;8.13;;;;;;;;;;5039020;28;20021;-64
2023/12/08 04:54:51;;;;;;;13.95;8.20;;;;;;;;;;5041217;28;20235;-64
2023/12/08 04:57:16;;;;;;;16.35;8.90;;;;;;;;;;5039637;28;20021;-64
2023/12/08 04:59:41;;;;;;;15.70;9.07;;;;;;;;;;5041584;28;20036;-64
2023/12/08 05:02:06;;;;;;;14.77;8.35;;;;;;;;;;5041701;28;20298;-65
2023/12/08 05:04:31;;;;;;;13.40;8.32;;;;;;;;;;5050527;28;20040;-64
2023/12/08 05:06:57;;;;;;;14.75;8.43;;;;;;;;;;5042092;28;20040;-64
2023/12/08 05:09:22;;;;;;;17.38;9.48;;;;;;;;;;5040609;28;20032;-64
2023/12/08 05:11:47;;;;;;;16.07;9.40;;;;;;;;;;5045078;28;20028;-64
2023/12/08 05:14:13;;;;;;;15.50;9.30;;;;;;;;;;5041350;28;20340;-64
2023/12/08 05:16:38;;;;;;;15.38;9.77;;;;;;;;;;5048227;28;20041;-63
2023/12/08 05:19:05;;;;;;;16.37;9.13;;;;;;;;;;5040930;28;20155;-63
2023/12/08 05:21:30;;;;;;;15.30;9.90;;;;;;;;;;5044631;28;20284;-64
2023/12/08 05:23:55;;;;;;;16.08;9.48;;;;;;;;;;5023270;28;20043;-64
2023/12/08 05:26:21;;;;;;;16.90;9.38;;;;;;;;;;5042897;28;20128;-65
2023/12/08 05:28:46;;;;;;;14.82;9.57;;;;;;;;;;5043254;28;20025;-62
2023/12/08 05:31:12;;;;;;;15.98;9.52;;;;;;;;;;5048150;28;20032;-61
2023/12/08 05:33:37;;;;;;;15.43;9.70;;;;;;;;;;5049507;28;20033;-62
2023/12/08 05:36:03;;;;;;;18.20;9.65;;;;;;;;;;5049660;28;20032;-63
2023/12/08 05:38:28;;;;;;;20.45;9.43;;;;;;;;;;5034816;28;20057;-64
2023/12/08 05:40:53;;;;;;;15.47;9.53;;;;;;;;;;5037127;28;20074;-64
2023/12/08 05:43:18;;;;;;;17.20;10.13;;;;;;;;;;5045613;28;20278;-64
2023/12/08 05:45:44;;;;;;;17.60;10.27;;;;;;;;;;5048014;28;20278;-64
2023/12/08 05:48:09;;;;;;;20.70;10.90;;;;;;;;;;5040993;28;20021;-64
2023/12/08 05:50:34;;;;;;;21.55;11.38;;;;;;;;;;5039127;28;20295;-64
2023/12/08 05:52:59;;;;;;;19.15;10.63;;;;;;;;;;5034414;28;20028;-63
2023/12/08 05:55:25;;;;;;;18.63;10.70;;;;;;;;;;5034877;28;20033;-64
2023/12/08 05:57:50;;;;;;;15.00;10.50;;;;;;;;;;5042947;28;20041;-63
2023/12/08 06:00:17;;;;;;;20.90;10.57;;;;;;;;;;5049421;28;20684;-63
2023/12/08 06:02:43;;;;;;;19.98;11.02;;;;;;;;;;5044163;28;20275;-63
2023/12/08 06:05:09;;;;;;;18.23;10.73;;;;;;;;;;5047508;28;20029;-63
2023/12/08 06:07:35;;;;;;;17.38;9.50;;;;;;;;;;5040628;28;20029;-63
2023/12/08 06:10:00;;;;;;;18.75;11.45;;;;;;;;;;5041834;28;20440;-63
2023/12/08 06:12:25;;;;;;;18.42;10.20;;;;;;;;;;5041416;28;20106;-63
2023/12/08 06:14:50;;;;;;;20.13;10.10;;;;;;;;;;5036828;28;20028;-63
2023/12/08 06:17:16;;;;;;;14.80;9.80;;;;;;;;;;5039925;28;20325;-63
2023/12/08 06:19:41;;;;;;;17.25;9.73;;;;;;;;;;5040517;28;20040;-63
2023/12/08 06:22:06;;;;;;;21.23;11.27;;;;;;;;;;5035519;28;20100;-64
2023/12/08 06:24:32;;;;;;;17.15;9.93;;;;;;;;;;5041394;28;20132;-65
2023/12/08 06:26:57;;;;;;;18.17;10.65;;;;;;;;;;5038520;28;20119;-65
2023/12/08 06:29:22;;;;;;;19.63;11.33;;;;;;;;;;5037715;28;20028;-64
2023/12/08 06:31:47;;;;;;;18.83;10.63;;;;;;;;;;5043240;28;20267;-64
2023/12/08 06:34:13;;;;;;;18.35;12.07;;;;;;;;;;5045635;28;20124;-65
2023/12/08 06:36:48;;;;;;;18.42;10.85;;;;;;;;;;5034626;28;20896;-64
2023/12/08 06:39:15;;;;;;;18.20;11.40;;;;;;;;;;5035126;28;20037;-63
2023/12/08 06:41:40;;;;;;;20.05;11.55;;;;;;;;;;5045891;28;20095;-62
2023/12/08 06:44:05;;;;;;;20.38;10.75;;;;;;;;;;5028618;28;20144;-64
2023/12/08 06:46:31;;;;;;;20.33;11.13;;;;;;;;;;5035021;28;20063;-64
2023/12/08 06:48:56;;;;;;;20.23;10.60;;;;;;;;;;5037829;28;20361;-64
2023/12/08 06:51:21;;;;;;;19.40;11.37;;;;;;;;;;5038470;28;20036;-63
2023/12/08 06:53:46;;;;;;;20.58;11.85;;;;;;;;;;5029400;28;20373;-63
2023/12/08 06:56:11;;;;;;;21.37;11.60;;;;;;;;;;5047000;28;20127;-62
2023/12/08 06:58:37;;;;;;;20.88;11.70;;;;;;;;;;5041582;28;20291;-63
2023/12/08 07:01:02;;;;;;;21.27;11.68;;;;;;;;;;5046870;28;20021;-64
2023/12/08 07:03:27;;;;;;;23.65;12.57;;;;;;;;;;5047963;28;20071;-63
2023/12/08 07:05:52;;;;;;;19.60;11.37;;;;;;;;;;5039610;28;20100;-63
2023/12/08 07:08:18;;;;;;;25.60;12.03;;;;;;;;;;5039751;28;20263;-63
2023/12/08 07:10:43;;;;;;;23.23;12.70;;;;;;;;;;5041155;28;20282;-63
2023/12/08 07:13:08;;;;;;;25.47;13.10;;;;;;;;;;5054521;28;20052;-63
2023/12/08 07:15:33;;;;;;;22.63;12.77;;;;;;;;;;5051674;28;20363;-63
2023/12/08 07:17:59;;;;;;;20.63;11.97;;;;;;;;;;5040547;28;20056;-63
2023/12/08 07:20:24;;;;;;;19.70;11.40;;;;;;;;;;5055441;28;20294;-63
2023/12/08 07:22:49;;;;;;;17.63;11.75;;;;;;;;;;5055859;28;20021;-63
2023/12/08 07:25:15;;;;;;;22.70;11.93;;;;;;;;;;5026897;28;20119;-63
2023/12/08 07:27:40;;;;;;;20.02;12.48;;;;;;;;;;5027384;28;20291;-65
2023/12/08 07:30:06;;;;;;;18.35;11.43;;;;;;;;;;5031444;28;20396;-63
2023/12/08 07:32:31;;;;;;;21.25;12.57;;;;;;;;;;5039336;28;20032;-63
2023/12/08 07:34:56;;;;;;;23.90;12.02;;;;;;;;;;5037221;28;20040;-63
2023/12/08 07:37:22;;;;;;;19.85;11.85;;;;;;;;;;5029959;28;20078;-63
2023/12/08 07:39:47;;;;;;;23.17;11.20;;;;;;;;;;5039169;28;20054;-64
2023/12/08 07:42:12;;;;;;;18.70;11.57;;;;;;;;;;5038443;28;20116;-64
2023/12/08 07:44:37;;;;;;;24.90;12.27;;;;;;;;;;5034695;28;20430;-63
2023/12/08 07:47:03;;;;;;;21.58;11.88;;;;;;;;;;5036157;28;20044;-63
2023/12/08 07:49:28;;;;;;;21.27;12.18;;;;;;;;;;5038997;28;20127;-64
2023/12/08 07:51:53;;;;;;;23.02;12.25;;;;;;;;;;5050524;28;20044;-63
2023/12/08 07:54:18;;;;;;;25.02;12.60;;;;;;;;;;5038256;28;20028;-64
2023/12/08 07:56:44;;;;;;;22.77;12.77;;;;;;;;;;5034692;28;20044;-63
2023/12/08 07:59:09;;;;;;;21.27;12.38;;;;;;;;;;5026107;28;20021;-62
2023/12/08 08:01:35;;;;;;;24.48;12.15;;;;;;;;;;5016056;28;20029;-63
2023/12/08 08:04:00;;;;;;;28.95;12.75;;;;;;;;;;5021335;28;20127;-63
2023/12/08 08:06:26;;;;;;;21.98;12.07;;;;;;;;;;5008984;28;20080;-63
2023/12/08 08:08:51;;;;;;;26.00;12.07;;;;;;;;;;5019561;28;20445;-64
2023/12/08 08:11:16;;;;;;;23.23;11.55;;;;;;;;;;5016704;28;21016;-64
2023/12/08 08:13:41;;;;;;;22.33;11.38;;;;;;;;;;5030225;28;20112;-63
2023/12/08 08:16:07;;;;;;;22.58;11.50;;;;;;;;;;5012971;28;20068;-64
2023/12/08 08:18:32;;;;;;;25.10;12.32;;;;;;;;;;5033379;28;20832;-63
2023/12/08 08:20:58;;;;;;;22.25;12.63;;;;;;;;;;5017855;28;20021;-63
2023/12/08 08:23:23;;;;;;;22.33;11.30;;;;;;;;;;5019785;28;20874;-64
2023/12/08 08:25:48;;;;;;;21.60;11.73;;;;;;;;;;5015251;28;20079;-64
2023/12/08 08:28:13;;;;;;;21.57;11.27;;;;;;;;;;5019111;28;20036;-63
2023/12/08 08:30:42;;;;;;;22.48;12.45;;;;;;;;;;5035966;28;20286;-63
2023/12/08 08:33:07;;;;;;;26.73;12.38;;;;;;;;;;5017941;28;20017;-64
2023/12/08 08:35:32;;;;;;;25.35;12.55;;;;;;;;;;5015638;28;20926;-63
2023/12/08 08:37:58;;;;;;;25.20;12.77;;;;;;;;;;5032442;28;20024;-64
2023/12/08 08:40:23;;;;;;;24.77;11.13;;;;;;;;;;5015374;28;20378;-63
2023/12/08 08:42:48;;;;;;;27.73;11.77;;;;;;;;;;5026148;28;20874;-63
2023/12/08 08:45:13;;;;;;;30.87;11.40;;;;;;;;;;5022224;28;21003;-63
2023/12/08 08:47:39;;;;;;;23.52;12.52;;;;;;;;;;5017953;28;21215;-63
2023/12/08 08:50:05;;;;;;;26.90;11.15;;;;;;;;;;5020134;28;20040;-63
2023/12/08 08:52:30;;;;;;;19.63;10.80;;;;;;;;;;5020537;28;20061;-63
2023/12/08 08:54:56;;;;;;;27.30;11.45;;;;;;;;;;5024098;28;20143;-63
2023/12/08 08:57:21;;;;;;;24.13;11.90;;;;;;;;;;5020142;28;20017;-63
2023/12/08 08:59:46;;;;;;;25.83;11.50;;;;;;;;;;5029055;28;20905;-63
2023/12/08 09:02:11;;;;;;;24.77;11.48;;;;;;;;;;5029095;28;20039;-63
2023/12/08 09:04:37;;;;;;;25.02;11.45;;;;;;;;;;5024670;28;20957;-63
2023/12/08 09:07:02;;;;;;;29.77;12.00;;;;;;;;;;5031759;28;20028;-64
2023/12/08 09:09:27;;;;;;;25.80;11.38;;;;;;;;;;5028450;28;20063;-64
2023/12/08 09:11:52;;;;;;;19.33;10.75;;;;;;;;;;5014082;28;20434;-64
2023/12/08 09:14:18;;;;;;;24.45;11.27;;;;;;;;;;5034848;28;20510;-64
2023/12/08 09:16:44;;;;;;;25.77;11.18;;;;;;;;;;5035610;28;20807;-63
2023/12/08 09:19:09;;;;;;;27.70;11.68;;;;;;;;;;5024846;28;20025;-63
2023/12/08 09:21:35;;;;;;;24.55;11.45;;;;;;;;;;5023197;28;20086;-63
2023/12/08 09:24:00;;;;;;;26.53;11.50;;;;;;;;;;5035235;28;20254;-64
2023/12/08 09:26:25;;;;;;;28.33;10.88;;;;;;;;;;5035890;28;20507;-64
2023/12/08 09:28:50;;;;;;;32.13;11.25;;;;;;;;;;5039024;28;20020;-63
2023/12/08 09:31:16;;;;;;;27.30;11.17;;;;;;;;;;5020697;28;20032;-63
2023/12/08 09:33:44;;;;;;;25.63;11.23;;;;;;;;;;5016036;28;20386;-63
2023/12/08 09:36:09;;;;;;;24.15;11.45;;;;;;;;;;5015056;28;20021;-64
2023/12/08 09:38:35;;;;;;;25.40;11.10;;;;;;;;;;5029479;28;20921;-63
2023/12/08 09:41:04;;;;;;;26.38;11.90;;;;;;;;;;5051493;28;20036;-63
2023/12/08 09:43:39;;;;;;;27.52;11.18;;;;;;;;;;5035660;28;20064;-63
2023/12/08 09:46:05;;;;;;;26.40;12.27;;;;;;;;;;5020211;28;20520;-63
2023/12/08 09:48:30;;;;;;;26.10;11.27;;;;;;;;;;5037979;28;20039;-64
2023/12/08 09:50:57;;;;;;;24.83;12.43;;;;;;;;;;5024300;28;20025;-64
2023/12/08 09:53:23;;;;;;;34.42;11.50;;;;;;;;;;5024523;28;20929;-64
2023/12/08 09:55:48;;;;;;;27.15;11.45;;;;;;;;;;5021350;28;20028;-63
2023/12/08 09:58:14;;;;;;;25.95;11.13;;;;;;;;;;5033501;28;20017;-63
2023/12/08 10:00:40;;;;;;;28.42;11.20;;;;;;;;;;5034810;28;20025;-63
2023/12/08 10:03:05;;;;;;;28.15;12.18;;;;;;;;;;5041242;28;20029;-63
2023/12/08 10:05:30;;;;;;;25.47;11.60;;;;;;;;;;5032010;28;20024;-63
2023/12/08 10:07:57;;;;;;;27.55;12.52;;;;;;;;;;5023343;28;20375;-64
2023/12/08 10:10:24;;;;;;;31.38;13.32;;;;;;;;;;5013900;28;20028;-64
2023/12/08 10:12:50;;;;;;;23.48;11.80;;;;;;;;;;5013442;28;20155;-64
2023/12/08 10:15:16;;;;;;;24.98;10.68;;;;;;;;;;5037466;28;20025;-63
2023/12/08 10:17:46;;;;;;;21.02;11.23;;;;;;;;;;5043684;28;20041;-63
2023/12/08 10:20:12;;;;;;;25.00;11.43;;;;;;;;;;5026441;28;20025;-64
2023/12/08 10:22:53;;;;;;;28.00;12.38;;;;;;;;;;5030731;28;20029;-64
2023/12/08 10:25:20;;;;;;;34.78;12.60;;;;;;;;;;5016902;28;20078;-63
2023/12/08 10:27:53;;;;;;;26.10;11.30;;;;;;;;;;5026431;28;20086;-64
2023/12/08 10:30:19;;;;;;;29.20;11.52;;;;;;;;;;5020249;28;20351;-64
2023/12/08 10:32:44;;;;;;;26.88;10.48;;;;;;;;;;5033618;28;20032;-63
2023/12/08 10:35:11;;;;;;;24.20;11.10;;;;;;;;;;5015590;28;20802;-63
2023/12/08 10:37:36;;;;;;;31.65;11.93;;;;;;;;;;5016001;28;20891;-64
2023/12/08 10:40:02;;;;;;;33.33;12.32;;;;;;;;;;5015071;28;20060;-64
2023/12/08 10:42:27;;;;;;;32.97;11.25;;;;;;;;;;5018694;28;20028;-64
2023/12/08 10:44:53;;;;;;;32.30;12.18;;;;;;;;;;5020656;28;20113;-64
2023/12/08 10:47:20;;;;;;;26.38;11.27;;;;;;;;;;5031105;28;20110;-63
2023/12/08 10:49:46;;;;;;;22.17;11.15;;;;;;;;;;5017696;28;20033;-63
2023/12/08 10:52:13;;;;;;;24.05;11.43;;;;;;;;;;5024627;28;20087;-64
2023/12/08 10:54:38;;;;;;;27.90;11.18;;;;;;;;;;5028508;28;20622;-64
2023/12/08 10:57:03;;;;;;;24.50;11.90;;;;;;;;;;5041790;28;20811;-64
2023/12/08 10:59:30;;;;;;;25.52;12.57;;;;;;;;;;5037257;28;21135;-64
2023/12/08 11:01:58;;;;;;;32.22;13.10;;;;;;;;;;5024873;28;20077;-64
2023/12/08 11:04:25;;;;;;;32.42;12.65;;;;;;;;;;5031499;28;20039;-64
2023/12/08 11:07:12;;;;;;;28.48;12.80;;;;;;;;;;5024281;28;20056;-63
2023/12/08 11:09:39;;;;;;;28.30;11.60;;;;;;;;;;5032817;28;20032;-63
2023/12/08 11:12:06;;;;;;;25.65;12.55;;;;;;;;;;5021815;28;20033;-63
2023/12/08 11:14:40;;;;;;;36.42;14.13;;;;;;;;;;5028348;28;20143;-64
2023/12/08 11:17:07;;;;;;;;;;;;;;;;;;5025030;28;20741;-63
2023/12/08 11:19:33;;;;;;;30.17;13.13;;;;;;;;;;5020201;28;20031;-63
2023/12/08 11:21:59;;;;;;;25.65;12.02;;;;;;;;;;5025615;28;20032;-63
2023/12/08 11:24:25;;;;;;;28.63;12.88;;;;;;;;;;5020920;28;20025;-64
2023/12/08 11:26:53;;;;;;;40.70;12.65;;;;;;;;;;5048853;28;20043;-63
2023/12/08 11:29:37;;;;;;;32.67;14.40;;;;;;;;;;5044438;28;20029;-63
2023/12/08 11:32:17;;;;;;;24.42;13.38;;;;;;;;;;5032283;28;20025;-63
2023/12/08 11:34:45;;;;;;;23.65;13.05;;;;;;;;;;5036761;28;20721;-63
2023/12/08 11:37:10;;;;;;;23.90;11.30;;;;;;;;;;5034998;28;20029;-63
2023/12/08 11:39:43;;;;;;;25.13;13.52;;;;;;;;;;5033872;28;20071;-63
2023/12/08 11:42:11;;;;;;;24.52;12.40;;;;;;;;;;5029170;28;20383;-63
2023/12/08 11:44:37;;;;;;;28.20;12.40;;;;;;;;;;5041425;28;20106;-63
2023/12/08 11:47:14;;;;;;;25.95;12.20;;;;;;;;;;5038530;28;20036;-63
2023/12/08 11:49:41;;;;;;;18.63;10.43;;;;;;;;;;5038051;28;20075;-63
2023/12/08 11:52:15;;;;;;;25.90;12.95;;;;;;;;;;5043918;28;20028;-63
2023/12/08 11:54:58;;;;;;;24.67;12.77;;;;;;;;;;5043670;28;20079;-63
2023/12/08 11:57:23;;;;;;;22.48;11.70;;;;;;;;;;5042066;28;20047;-63
2023/12/08 11:59:49;;;;;;;21.20;11.80;;;;;;;;;;5038867;28;20543;-63
2023/12/08 12:02:14;;;;;;;30.98;12.13;;;;;;;;;;5024120;28;20175;-63
2023/12/08 12:04:40;;;;;;;23.98;11.82;;;;;;;;;;5024529;28;20900;-63
2023/12/08 12:07:05;;;;;;;27.77;12.60;;;;;;;;;;5022851;28;20115;-63
2023/12/08 12:09:33;;;;;;;20.65;11.50;;;;;;;;;;5013744;28;20068;-63
2023/12/08 12:12:00;;;;;;;29.95;12.30;;;;;;;;;;5017736;28;20763;-63
2023/12/08 12:14:26;;;;;;;23.10;11.23;;;;;;;;;;5035916;28;20033;-63
2023/12/08 12:16:52;;;;;;;22.88;11.43;;;;;;;;;;5024440;28;20853;-63
2023/12/08 12:19:17;;;;;;;24.20;10.55;;;;;;;;;;5031652;28;20025;-63
2023/12/08 12:21:43;;;;;;;24.58;10.52;;;;;;;;;;5031613;28;20033;-63
2023/12/08 12:24:08;;;;;;;21.48;11.35;;;;;;;;;;5007365;28;20779;-63
2023/12/08 12:26:33;;;;;;;21.10;11.10;;;;;;;;;;5029183;28;20024;-63
2023/12/08 12:28:59;;;;;;;21.30;10.37;;;;;;;;;;5027440;28;20025;-63
2023/12/08 12:31:24;;;;;;;21.20;9.07;;;;;;;;;;5029569;28;20382;-63
2023/12/08 12:33:49;;;;;;;17.63;9.73;;;;;;;;;;5029342;28;20047;-63
2023/12/08 12:36:14;;;;;;;22.70;9.10;;;;;;;;;;5020662;28;20071;-63
2023/12/08 12:38:42;;;;;;;14.23;7.93;;;;;;;;;;5018472;28;20132;-64
2023/12/08 12:41:20;;;;;;;25.00;9.07;;;;;;;;;;5023210;28;20651;-63
2023/12/08 12:43:45;;;;;;;16.05;8.52;;;;;;;;;;5016784;28;20086;-63
2023/12/08 12:46:11;;;;;;;14.10;8.07;;;;;;;;;;5020744;28;20021;-63
2023/12/08 12:48:36;;;;;;;20.77;7.50;;;;;;;;;;5022222;28;20025;-62
2023/12/08 12:51:01;;;;;;;14.05;7.32;;;;;;;;;;5028316;28;20957;-62
2023/12/08 12:53:26;;;;;;;17.30;7.78;;;;;;;;;;5029333;28;20142;-64
2023/12/08 12:56:03;;;;;;;11.80;6.70;;;;;;;;;;5026798;28;20021;-63
2023/12/08 12:58:29;;;;;;;19.00;7.82;;;;;;;;;;5036918;28;20717;-64
2023/12/08 13:00:54;;;;;;;22.93;7.73;;;;;;;;;;5041223;28;20028;-63
2023/12/08 13:03:20;;;;;;;16.90;7.35;;;;;;;;;;5036280;28;20275;-63
2023/12/08 13:05:46;;;;;;;13.82;6.70;;;;;;;;;;5025639;28;20043;-63
2023/12/08 13:08:11;;;;;;;21.48;7.35;;;;;;;;;;5024613;28;20020;-63
2023/12/08 13:10:36;;;;;;;13.82;6.80;;;;;;;;;;5016987;28;20903;-63
2023/12/08 13:13:02;;;;;;;15.80;6.40;;;;;;;;;;5031689;28;20653;-63
2023/12/08 13:15:27;;;;;;;16.50;6.55;;;;;;;;;;5021442;28;20274;-63
2023/12/08 13:17:52;;;;;;;18.52;6.82;;;;;;;;;;5028238;28;20037;-63
2023/12/08 13:20:18;;;;;;;17.88;6.88;;;;;;;;;;5043487;28;20135;-63
2023/12/08 13:22:43;;;;;;;17.17;7.03;;;;;;;;;;5029879;28;20029;-63
2023/12/08 13:25:08;;;;;;;14.70;6.10;;;;;;;;;;5040538;28;20063;-63
2023/12/08 13:27:34;;;;;;;18.92;6.60;;;;;;;;;;5026624;28;20063;-63
2023/12/08 13:29:59;;;;;;;13.33;6.37;;;;;;;;;;5031793;28;20383;-63
2023/12/08 13:32:24;;;;;;;15.20;7.15;;;;;;;;;;5039706;28;21202;-63
2023/12/08 13:34:49;;;;;;;19.75;6.70;;;;;;;;;;5037115;28;20479;-63
2023/12/08 13:37:14;;;;;;;16.33;6.90;;;;;;;;;;5019573;28;20058;-63
2023/12/08 13:39:40;;;;;;;20.10;6.85;;;;;;;;;;5040377;28;20028;-63
2023/12/08 13:42:05;;;;;;;17.58;7.63;;;;;;;;;;5032962;28;20017;-64
2023/12/08 13:44:30;;;;;;;10.15;6.18;;;;;;;;;;5049236;28;20059;-63
2023/12/08 13:46:56;;;;;;;17.63;6.68;;;;;;;;;;5034472;28;20039;-64
2023/12/08 13:49:21;;;;;;;13.95;7.80;;;;;;;;;;5015144;28;20862;-64
2023/12/08 13:51:47;;;;;;;17.58;6.53;;;;;;;;;;5039153;28;20876;-63
2023/12/08 13:54:12;;;;;;;16.13;7.03;;;;;;;;;;5040633;28;20794;-62
2023/12/08 13:56:37;;;;;;;15.18;6.60;;;;;;;;;;5041854;28;20306;-64
2023/12/08 13:59:02;;;;;;;15.40;6.07;;;;;;;;;;5040929;28;20459;-61
2023/12/08 14:01:28;;;;;;;13.90;6.50;;;;;;;;;;5040058;28;20032;-61
2023/12/08 14:03:53;;;;;;;12.40;6.07;;;;;;;;;;5027287;28;20017;-61
2023/12/08 14:06:21;;;;;;;18.48;7.03;;;;;;;;;;5041502;28;20132;-61
2023/12/08 14:08:47;;;;;;;14.30;6.90;;;;;;;;;;5045040;28;20075;-61
2023/12/08 14:11:12;;;;;;;21.43;7.97;;;;;;;;;;5041397;28;20558;-61
2023/12/08 14:13:37;;;;;;;19.70;7.50;;;;;;;;;;5043185;28;20291;-61
2023/12/08 14:16:02;;;;;;;20.60;7.47;;;;;;;;;;5033669;28;20278;-64